Pagina principale
METAR-TAF:

METAR-TAF

Aeroporti :

Aeroporto di Cervia-Pisignano

Cervia, Italia

latitudine: 44-13N, longitudine: 012-18E, altezza: 6 m

Osservazione

Il bollettino è stato emesso 1 ora e 1 minuti fa, alle 00:55 UTC
Vento 4 kt da sud/sud-ovest, variando fra sud e nord-ovest
Temperature 5°C
Umidità 93%
Pressione 1019 hPa
Visibilità 10 km o più
Nubi sparse ad un'altezza di 6000 ft

METAR: LIPC 240055Z 20004KT 170V320 9999 SCT060 05/04 Q1019 RMK BKN BKN200 VIS MIN 9999 WIND THR11 19005 KT WIND THR29 24003KT BLU

Ora: 02:56 (01:56 UTC)

Previsione

Il bollettino è stato emesso 2 ore e 56 minuti fa, alle 23:00 UTC
Previsione valida dal 24 alle 00 UTC al 24 alle 09 UTC
Vento 6 kt da sud-ovest
Visibilità 10 km o più
nessuna nube inferiore a 1500 m e nessun cumulonembo
Evoluzione graduale
dal 24 alle 00 UTC al 24 alle 03 UTC
Vento 3 kt da direzioni variabili

TAF: LIPC 232300Z 2400/2409 214006KT CAVOK BECMG 2400/2403 VRB03KT

Osservazioni e previsioni meteorologiche di più di 4000 aeroporti (messaggi METAR e TAF).

Le stazioni disponibili sono rappresentate dai dischi gialli e rossi sulla carta.

Puntare il mouse per vedere il nome della stazione.

Clicca sopra per visualizzare le osservazioni e previsioni meteorologiche.

Per cambiare la mappa : fare clic sui pulsanti verdi con una croce nera per ingrandire, il pulsante verde con un trattino per diminuire, o sulla freccia verde per le mappe adiacenti.


METAR-TAF: